createdAt,value
2023-02-12T00:02:58.729Z,110.38
2023-02-12T00:08:24.708Z,104.72
2023-02-12T00:13:27.223Z,101.68
2023-02-12T00:18:45.652Z,109.18
2023-02-12T00:24:03.596Z,112.15
2023-02-12T00:29:11.578Z,91.65
2023-02-12T00:34:14.298Z,90.77
2023-02-12T00:39:16.869Z,76.70
2023-02-12T00:44:19.215Z,79.72
2023-02-12T00:49:22.089Z,76.70
2023-02-12T00:54:24.999Z,75.57
2023-02-12T00:59:27.598Z,70.87
2023-02-12T01:04:30.744Z,50.50
2023-02-12T01:09:33.192Z,40.55
2023-02-12T01:14:36.617Z,51.37
2023-02-12T01:19:39.735Z,64.07
2023-02-12T01:24:42.345Z,48.15
2023-02-12T01:29:45.917Z,32.53
2023-02-12T01:34:48.580Z,41.38
2023-02-12T01:39:54.670Z,40.40
2023-02-12T01:45:12.605Z,38.13
2023-02-12T01:50:19.025Z,40.40
2023-02-12T01:55:22.004Z,40.03
2023-02-12T02:00:28.968Z,48.40
2023-02-12T02:05:53.687Z,40.75
2023-02-12T02:10:56.253Z,38.63
2023-02-12T02:16:08.595Z,43.53
2023-02-12T02:22:01.666Z,83.15
2023-02-12T02:27:13.834Z,46.85
2023-02-12T02:32:27.593Z,82.40
2023-02-12T02:42:44.461Z,84.35
2023-02-12T02:48:10.624Z,78.15
2023-02-12T02:53:22.580Z,55.17
2023-02-12T02:58:30.362Z,40.50
2023-02-12T03:03:36.520Z,36.72
2023-02-12T03:08:47.654Z,32.33
2023-02-12T03:13:57.012Z,32.28
2023-02-12T03:19:16.989Z,39.00
2023-02-12T03:24:45.058Z,35.00
2023-02-12T03:29:47.513Z,36.13
2023-02-12T03:35:10.494Z,36.50
2023-02-12T03:40:20.550Z,35.07
2023-02-12T03:46:02.337Z,28.98
2023-02-12T03:51:33.568Z,32.92
2023-02-12T03:56:52.426Z,40.10
2023-02-12T04:01:58.477Z,33.50
2023-02-12T04:07:01.435Z,42.25
2023-02-12T04:12:13.617Z,37.57
2023-02-12T04:17:43.317Z,40.97
2023-02-12T04:23:01.932Z,37.22
2023-02-12T04:28:13.338Z,33.03
2023-02-12T04:33:21.258Z,32.03
2023-02-12T04:38:41.006Z,29.92
2023-02-12T04:43:45.644Z,33.40
2023-02-12T04:48:59.286Z,34.78
2023-02-12T04:54:01.640Z,41.50
2023-02-12T04:59:04.595Z,40.05
2023-02-12T05:04:07.930Z,40.53
2023-02-12T05:09:14.903Z,42.65
2023-02-12T05:14:17.939Z,35.17
2023-02-12T05:19:23.585Z,41.20
2023-02-12T05:24:26.170Z,50.30
2023-02-12T05:29:29.579Z,52.97
2023-02-12T05:34:31.961Z,69.95
2023-02-12T05:39:35.323Z,63.67
2023-02-12T05:44:37.671Z,63.50
2023-02-12T05:49:40.100Z,54.47
2023-02-12T05:54:42.693Z,51.35
2023-02-12T05:59:46.288Z,56.40
2023-02-12T06:04:50.207Z,77.68
2023-02-12T06:09:53.787Z,57.10
2023-02-12T06:14:56.299Z,79.50
2023-02-12T06:20:18.739Z,169.32
2023-02-12T06:25:21.346Z,135.55
2023-02-12T06:30:32.220Z,111.18
2023-02-12T06:35:36.120Z,88.30
2023-02-12T06:40:38.523Z,73.65
2023-02-12T06:45:41.509Z,61.05
2023-02-12T06:50:44.800Z,52.42
2023-02-12T06:55:47.631Z,60.72
2023-02-12T07:01:32.013Z,55.43
2023-02-12T07:06:35.725Z,48.10
2023-02-12T07:11:38.835Z,42.25
2023-02-12T07:16:43.100Z,39.25
2023-02-12T07:22:16.003Z,32.65
2023-02-12T07:27:24.957Z,29.20
2023-02-12T07:32:28.653Z,37.22
2023-02-12T07:37:31.778Z,99.80
2023-02-12T07:42:34.459Z,124.03
2023-02-12T07:47:41.492Z,144.45
2023-02-12T07:52:44.158Z,70.25
2023-02-12T07:57:46.536Z,56.83
2023-02-12T08:02:53.344Z,87.57
2023-02-12T08:08:23.863Z,158.80
2023-02-12T08:13:48.393Z,95.75
2023-02-12T08:19:20.201Z,60.83
2023-02-12T08:24:46.098Z,70.10
2023-02-12T08:29:56.853Z,131.18
2023-02-12T08:34:59.614Z,98.65
2023-02-12T08:40:03.102Z,131.48
2023-02-12T08:45:07.710Z,132.30
2023-02-12T08:50:59.330Z,88.75
2023-02-12T08:56:47.572Z,85.20
2023-02-12T09:02:12.831Z,103.43
2023-02-12T09:07:15.510Z,67.75
2023-02-12T09:12:18.349Z,63.43
2023-02-12T09:17:20.793Z,60.08
2023-02-12T09:22:25.354Z,68.88
2023-02-12T09:27:42.727Z,81.75
2023-02-12T09:32:45.811Z,96.47
2023-02-12T09:37:48.317Z,89.55
2023-02-12T09:43:49.165Z,86.85
2023-02-12T09:49:08.214Z,107.47
2023-02-12T09:54:20.418Z,81.22
2023-02-12T09:59:35.318Z,62.22
2023-02-12T10:04:43.963Z,59.83
2023-02-12T10:10:15.474Z,54.83
2023-02-12T10:15:40.070Z,41.72
2023-02-12T10:21:13.699Z,43.63
2023-02-12T10:26:22.574Z,46.63
2023-02-12T10:31:37.647Z,40.78
2023-02-12T10:36:47.741Z,46.25
2023-02-12T10:41:55.876Z,36.10
2023-02-12T10:46:58.328Z,28.95
2023-02-12T10:52:39.624Z,25.85
2023-02-12T10:57:43.260Z,24.48
2023-02-12T11:03:07.195Z,32.85
2023-02-12T11:13:53.693Z,35.97
2023-02-12T11:19:23.532Z,34.85
2023-02-12T11:30:13.616Z,30.92
2023-02-12T11:35:29.205Z,71.85
2023-02-12T11:40:34.675Z,53.75
2023-02-12T11:45:46.019Z,92.38
2023-02-12T11:50:56.359Z,67.00
2023-02-12T11:56:09.764Z,91.22
2023-02-12T12:01:26.825Z,110.68
2023-02-12T12:06:48.625Z,143.98
2023-02-12T12:11:55.098Z,84.75
2023-02-12T12:17:26.012Z,97.95
2023-02-12T12:22:54.409Z,142.73
2023-02-12T12:28:28.376Z,68.07
2023-02-12T12:34:07.191Z,33.47
2023-02-12T12:39:43.266Z,80.03
2023-02-12T12:45:32.229Z,38.92
2023-02-12T12:51:22.967Z,59.90
2023-02-12T12:57:09.495Z,62.67
2023-02-12T13:02:51.823Z,41.95
2023-02-12T13:08:23.516Z,48.45
2023-02-12T13:13:30.802Z,65.30
2023-02-12T13:18:48.150Z,39.80
2023-02-12T13:23:59.033Z,31.60
2023-02-12T13:29:08.788Z,30.23
2023-02-12T13:34:15.276Z,29.48
2023-02-12T13:39:44.117Z,36.15
2023-02-12T13:45:07.777Z,38.28
2023-02-12T13:55:42.142Z,80.45
2023-02-12T14:00:51.704Z,57.70
2023-02-12T14:06:22.361Z,34.10
2023-02-12T14:11:38.362Z,29.92
2023-02-12T14:16:45.309Z,30.20
2023-02-12T14:21:50.509Z,31.83
2023-02-12T14:26:56.589Z,78.45
2023-02-12T14:32:00.790Z,95.78
2023-02-12T14:37:24.926Z,87.25
2023-02-12T14:42:32.636Z,134.60
2023-02-12T14:47:43.528Z,155.38
2023-02-12T14:53:22.680Z,107.82
2023-02-12T14:58:32.944Z,86.53
2023-02-12T15:03:45.024Z,55.55
2023-02-12T15:08:55.075Z,33.67
2023-02-12T15:14:14.262Z,38.60
2023-02-12T15:19:41.128Z,31.77
2023-02-12T15:24:47.202Z,38.13
2023-02-12T15:29:53.124Z,143.85
2023-02-12T15:34:57.101Z,69.43
2023-02-12T15:40:04.215Z,89.30
2023-02-12T15:45:16.128Z,113.53
2023-02-12T15:50:19.805Z,101.55
2023-02-12T15:55:28.674Z,105.75
2023-02-12T16:00:43.771Z,93.72
2023-02-12T16:06:06.229Z,88.82
2023-02-12T16:11:24.016Z,67.63
2023-02-12T16:16:45.579Z,70.47
2023-02-12T16:22:24.691Z,94.47
2023-02-12T16:27:40.157Z,66.75
2023-02-12T16:32:53.146Z,82.68
2023-02-12T16:38:23.034Z,87.68
2023-02-12T16:43:27.675Z,41.10
2023-02-12T16:48:34.157Z,45.90
2023-02-12T16:53:48.757Z,41.58
2023-02-12T16:59:16.933Z,37.05
2023-02-12T17:04:23.111Z,35.05
2023-02-12T17:15:01.268Z,28.27
2023-02-12T17:20:20.588Z,28.77
2023-02-12T17:25:50.900Z,33.85
2023-02-12T17:30:54.338Z,30.80
2023-02-12T17:36:01.327Z,47.03
2023-02-12T17:41:10.971Z,47.45
2023-02-12T17:46:19.744Z,39.13
2023-02-12T17:51:32.760Z,58.67
2023-02-12T18:01:41.465Z,80.90
2023-02-12T18:06:47.595Z,102.20
2023-02-12T18:11:51.847Z,134.77
2023-02-12T18:16:55.872Z,109.78
2023-02-12T18:22:00.910Z,117.95
2023-02-12T18:27:07.447Z,119.68
2023-02-12T18:37:20.876Z,80.03
2023-02-12T18:42:24.495Z,63.63
2023-02-12T18:52:34.700Z,55.70
2023-02-12T18:57:37.752Z,51.03
2023-02-12T19:02:40.913Z,50.22
2023-02-12T19:07:46.324Z,65.10
2023-02-12T19:12:49.734Z,58.65
2023-02-12T19:17:52.840Z,45.47
2023-02-12T19:22:59.834Z,55.08
2023-02-12T19:28:03.521Z,48.35
2023-02-12T19:33:07.538Z,49.28
2023-02-12T19:38:16.067Z,44.05
2023-02-12T19:43:22.772Z,54.33
2023-02-12T19:48:26.070Z,42.42
2023-02-12T19:53:29.947Z,39.67
2023-02-12T19:58:46.828Z,49.20
2023-02-12T20:03:50.609Z,42.00
2023-02-12T20:08:55.313Z,43.17
2023-02-12T20:13:59.740Z,30.08
2023-02-12T20:19:16.252Z,25.38
2023-02-12T20:24:19.578Z,34.28
2023-02-12T20:29:23.181Z,27.20
2023-02-12T20:34:27.105Z,29.10
2023-02-12T20:39:30.313Z,25.58
2023-02-12T20:44:34.750Z,24.65
2023-02-12T20:49:40.518Z,24.42
2023-02-12T20:54:47.997Z,29.58
2023-02-12T20:59:51.654Z,22.40
2023-02-12T21:04:56.488Z,29.17
2023-02-12T21:09:59.613Z,29.77
2023-02-12T21:15:02.639Z,24.98
2023-02-12T21:20:08.483Z,32.85
2023-02-12T21:25:11.486Z,30.20
2023-02-12T21:30:17.701Z,26.73
2023-02-12T21:35:23.835Z,31.17
2023-02-12T21:40:52.938Z,32.33
2023-02-12T21:46:00.247Z,40.75
2023-02-12T21:51:03.792Z,29.83
2023-02-12T21:56:07.382Z,28.05
2023-02-12T22:01:19.450Z,30.52
2023-02-12T22:06:25.566Z,28.58
2023-02-12T22:11:28.783Z,28.63
2023-02-12T22:16:32.262Z,32.67
2023-02-12T22:21:40.830Z,35.03
2023-02-12T22:26:48.801Z,31.90
2023-02-12T22:31:52.421Z,32.50
2023-02-12T22:36:58.946Z,30.10
2023-02-12T22:42:09.524Z,28.65
2023-02-12T22:47:16.267Z,25.58
2023-02-12T22:52:19.505Z,26.13
2023-02-12T22:57:22.905Z,27.90
2023-02-12T23:02:33.416Z,27.50
2023-02-12T23:07:40.105Z,32.40
2023-02-12T23:12:47.254Z,25.75
2023-02-12T23:17:55.123Z,30.13
2023-02-12T23:22:58.861Z,37.15
2023-02-12T23:33:07.590Z,28.35
2023-02-12T23:38:11.514Z,27.17
2023-02-12T23:43:15.242Z,26.88
2023-02-12T23:48:27.566Z,31.88
2023-02-12T23:53:31.389Z,43.15
2023-02-12T23:58:34.908Z,34.72
